sensor_id;sensor_type;location;lat;lon;timestamp;P1;durP1;ratioP1;P2;durP2;ratioP2
23015;SDS011;11674;52.428;13.584;2022-07-25T00:00:53;4.32;;;3.45;;
23015;SDS011;11674;52.428;13.584;2022-07-25T00:03:25;6.05;;;2.88;;
23015;SDS011;11674;52.428;13.584;2022-07-25T00:05:57;2.55;;;2.08;;
23015;SDS011;11674;52.428;13.584;2022-07-25T00:08:30;3.45;;;1.42;;
23015;SDS011;11674;52.428;13.584;2022-07-25T00:11:01;2.17;;;1.50;;
23015;SDS011;11674;52.428;13.584;2022-07-25T00:13:33;2.00;;;1.60;;
23015;SDS011;11674;52.428;13.584;2022-07-25T00:16:06;3.05;;;2.03;;
23015;SDS011;11674;52.428;13.584;2022-07-25T00:18:38;2.05;;;1.80;;
23015;SDS011;11674;52.428;13.584;2022-07-25T00:21:10;1.90;;;1.50;;
23015;SDS011;11674;52.428;13.584;2022-07-25T00:23:41;1.70;;;1.48;;
23015;SDS011;11674;52.428;13.584;2022-07-25T00:26:13;3.97;;;1.65;;
23015;SDS011;11674;52.428;13.584;2022-07-25T00:28:45;2.58;;;1.35;;
23015;SDS011;11674;52.428;13.584;2022-07-25T00:31:17;1.67;;;1.40;;
23015;SDS011;11674;52.428;13.584;2022-07-25T00:33:50;2.70;;;1.50;;
23015;SDS011;11674;52.428;13.584;2022-07-25T00:36:21;2.00;;;1.55;;
23015;SDS011;11674;52.428;13.584;2022-07-25T00:38:54;1.75;;;1.60;;
23015;SDS011;11674;52.428;13.584;2022-07-25T00:41:26;3.15;;;1.90;;
23015;SDS011;11674;52.428;13.584;2022-07-25T00:43:57;2.80;;;2.17;;
23015;SDS011;11674;52.428;13.584;2022-07-25T00:46:30;5.78;;;1.70;;
23015;SDS011;11674;52.428;13.584;2022-07-25T00:49:02;2.15;;;1.70;;
23015;SDS011;11674;52.428;13.584;2022-07-25T00:51:34;1.63;;;1.30;;
23015;SDS011;11674;52.428;13.584;2022-07-25T00:54:06;1.92;;;1.48;;
23015;SDS011;11674;52.428;13.584;2022-07-25T00:56:38;2.63;;;1.60;;
23015;SDS011;11674;52.428;13.584;2022-07-25T00:59:10;2.20;;;1.63;;
23015;SDS011;11674;52.428;13.584;2022-07-25T01:01:42;1.70;;;1.60;;
23015;SDS011;11674;52.428;13.584;2022-07-25T01:04:14;2.47;;;1.75;;
23015;SDS011;11674;52.428;13.584;2022-07-25T01:06:47;2.53;;;1.50;;
23015;SDS011;11674;52.428;13.584;2022-07-25T01:09:19;1.88;;;1.58;;
23015;SDS011;11674;52.428;13.584;2022-07-25T01:11:51;2.60;;;1.73;;
23015;SDS011;11674;52.428;13.584;2022-07-25T01:14:23;1.80;;;1.50;;
23015;SDS011;11674;52.428;13.584;2022-07-25T01:16:55;3.15;;;1.70;;
23015;SDS011;11674;52.428;13.584;2022-07-25T01:19:27;2.28;;;1.33;;
23015;SDS011;11674;52.428;13.584;2022-07-25T01:21:59;2.30;;;1.50;;
23015;SDS011;11674;52.428;13.584;2022-07-25T01:24:32;1.70;;;1.40;;
23015;SDS011;11674;52.428;13.584;2022-07-25T01:27:05;2.63;;;1.52;;
23015;SDS011;11674;52.428;13.584;2022-07-25T01:29:36;2.95;;;1.58;;
23015;SDS011;11674;52.428;13.584;2022-07-25T01:32:10;1.48;;;1.30;;
23015;SDS011;11674;52.428;13.584;2022-07-25T01:34:43;3.17;;;1.52;;
23015;SDS011;11674;52.428;13.584;2022-07-25T01:37:15;3.38;;;1.50;;
23015;SDS011;11674;52.428;13.584;2022-07-25T01:39:47;1.52;;;1.40;;
23015;SDS011;11674;52.428;13.584;2022-07-25T01:42:19;1.48;;;1.30;;
23015;SDS011;11674;52.428;13.584;2022-07-25T01:44:51;2.03;;;1.50;;
23015;SDS011;11674;52.428;13.584;2022-07-25T01:47:23;2.25;;;1.70;;
23015;SDS011;11674;52.428;13.584;2022-07-25T01:49:55;1.90;;;1.55;;
23015;SDS011;11674;52.428;13.584;2022-07-25T01:52:27;3.75;;;1.60;;
23015;SDS011;11674;52.428;13.584;2022-07-25T01:54:59;3.42;;;1.95;;
23015;SDS011;11674;52.428;13.584;2022-07-25T01:57:31;4.05;;;1.83;;
23015;SDS011;11674;52.428;13.584;2022-07-25T02:00:03;1.90;;;1.50;;
23015;SDS011;11674;52.428;13.584;2022-07-25T02:02:37;4.45;;;1.75;;
23015;SDS011;11674;52.428;13.584;2022-07-25T02:05:09;1.98;;;1.73;;
23015;SDS011;11674;52.428;13.584;2022-07-25T02:07:43;1.92;;;1.50;;
23015;SDS011;11674;52.428;13.584;2022-07-25T02:10:15;2.60;;;1.70;;
23015;SDS011;11674;52.428;13.584;2022-07-25T02:12:47;2.08;;;1.58;;
23015;SDS011;11674;52.428;13.584;2022-07-25T02:15:19;2.25;;;1.90;;
23015;SDS011;11674;52.428;13.584;2022-07-25T02:17:51;1.55;;;1.42;;
23015;SDS011;11674;52.428;13.584;2022-07-25T02:20:24;2.50;;;1.67;;
23015;SDS011;11674;52.428;13.584;2022-07-25T02:22:56;5.47;;;1.75;;
23015;SDS011;11674;52.428;13.584;2022-07-25T02:25:28;1.60;;;1.40;;
23015;SDS011;11674;52.428;13.584;2022-07-25T02:28:00;1.75;;;1.50;;
23015;SDS011;11674;52.428;13.584;2022-07-25T02:30:32;2.10;;;1.60;;
23015;SDS011;11674;52.428;13.584;2022-07-25T02:33:04;2.42;;;1.70;;
23015;SDS011;11674;52.428;13.584;2022-07-25T02:35:36;1.77;;;1.52;;
23015;SDS011;11674;52.428;13.584;2022-07-25T02:38:08;2.95;;;1.88;;
23015;SDS011;11674;52.428;13.584;2022-07-25T02:40:40;3.13;;;1.40;;
23015;SDS011;11674;52.428;13.584;2022-07-25T02:43:12;2.63;;;1.58;;
23015;SDS011;11674;52.428;13.584;2022-07-25T02:45:44;2.20;;;1.52;;
23015;SDS011;11674;52.428;13.584;2022-07-25T02:48:16;2.08;;;1.50;;
23015;SDS011;11674;52.428;13.584;2022-07-25T02:50:48;1.95;;;1.77;;
23015;SDS011;11674;52.428;13.584;2022-07-25T02:53:20;2.30;;;1.55;;
23015;SDS011;11674;52.428;13.584;2022-07-25T02:55:52;2.40;;;1.80;;
23015;SDS011;11674;52.428;13.584;2022-07-25T02:58:24;3.15;;;1.35;;
23015;SDS011;11674;52.428;13.584;2022-07-25T03:00:56;2.10;;;1.60;;
23015;SDS011;11674;52.428;13.584;2022-07-25T03:03:28;1.63;;;1.40;;
23015;SDS011;11674;52.428;13.584;2022-07-25T03:06:00;4.05;;;1.65;;
23015;SDS011;11674;52.428;13.584;2022-07-25T03:08:32;1.85;;;1.40;;
23015;SDS011;11674;52.428;13.584;2022-07-25T03:11:04;2.25;;;1.65;;
23015;SDS011;11674;52.428;13.584;2022-07-25T03:13:36;4.13;;;2.08;;
23015;SDS011;11674;52.428;13.584;2022-07-25T03:16:08;5.55;;;1.50;;
23015;SDS011;11674;52.428;13.584;2022-07-25T03:18:40;2.13;;;1.70;;
23015;SDS011;11674;52.428;13.584;2022-07-25T03:21:12;2.08;;;1.67;;
23015;SDS011;11674;52.428;13.584;2022-07-25T03:23:44;2.25;;;1.58;;
23015;SDS011;11674;52.428;13.584;2022-07-25T03:26:16;3.05;;;2.15;;
23015;SDS011;11674;52.428;13.584;2022-07-25T03:28:48;4.00;;;1.60;;
23015;SDS011;11674;52.428;13.584;2022-07-25T03:31:20;2.75;;;1.58;;
23015;SDS011;11674;52.428;13.584;2022-07-25T03:33:52;4.28;;;1.77;;
23015;SDS011;11674;52.428;13.584;2022-07-25T03:36:24;1.67;;;1.50;;
23015;SDS011;11674;52.428;13.584;2022-07-25T03:38:56;3.05;;;1.85;;
23015;SDS011;11674;52.428;13.584;2022-07-25T03:41:28;3.20;;;1.90;;
23015;SDS011;11674;52.428;13.584;2022-07-25T03:44:00;4.22;;;1.73;;
23015;SDS011;11674;52.428;13.584;2022-07-25T03:46:32;5.40;;;1.77;;
23015;SDS011;11674;52.428;13.584;2022-07-25T03:49:04;5.25;;;1.77;;
23015;SDS011;11674;52.428;13.584;2022-07-25T03:51:36;5.28;;;1.60;;
23015;SDS011;11674;52.428;13.584;2022-07-25T03:54:08;3.60;;;1.80;;
23015;SDS011;11674;52.428;13.584;2022-07-25T03:56:41;2.75;;;1.80;;
23015;SDS011;11674;52.428;13.584;2022-07-25T03:59:15;5.28;;;1.88;;
23015;SDS011;11674;52.428;13.584;2022-07-25T04:01:49;2.78;;;1.58;;
23015;SDS011;11674;52.428;13.584;2022-07-25T04:04:15;2.97;;;1.63;;
23015;SDS011;11674;52.428;13.584;2022-07-25T04:06:48;2.90;;;1.55;;
23015;SDS011;11674;52.428;13.584;2022-07-25T04:09:13;2.40;;;1.48;;
23015;SDS011;11674;52.428;13.584;2022-07-25T04:11:45;5.97;;;1.67;;
23015;SDS011;11674;52.428;13.584;2022-07-25T04:14:17;2.00;;;1.80;;
23015;SDS011;11674;52.428;13.584;2022-07-25T04:16:49;2.03;;;1.63;;
23015;SDS011;11674;52.428;13.584;2022-07-25T04:19:28;2.78;;;1.75;;
23015;SDS011;11674;52.428;13.584;2022-07-25T04:22:00;4.10;;;1.60;;
23015;SDS011;11674;52.428;13.584;2022-07-25T04:24:32;2.40;;;1.60;;
23015;SDS011;11674;52.428;13.584;2022-07-25T04:26:57;3.53;;;1.65;;
23015;SDS011;11674;52.428;13.584;2022-07-25T04:29:29;2.22;;;1.88;;
23015;SDS011;11674;52.428;13.584;2022-07-25T04:32:01;1.45;;;1.30;;
23015;SDS011;11674;52.428;13.584;2022-07-25T04:34:33;2.15;;;1.60;;
23015;SDS011;11674;52.428;13.584;2022-07-25T04:37:05;5.18;;;1.50;;
23015;SDS011;11674;52.428;13.584;2022-07-25T04:39:30;2.05;;;1.55;;
23015;SDS011;11674;52.428;13.584;2022-07-25T04:42:02;2.25;;;1.50;;
23015;SDS011;11674;52.428;13.584;2022-07-25T04:44:34;3.63;;;1.73;;
23015;SDS011;11674;52.428;13.584;2022-07-25T04:47:06;2.88;;;2.10;;
23015;SDS011;11674;52.428;13.584;2022-07-25T04:49:38;5.28;;;2.17;;
23015;SDS011;11674;52.428;13.584;2022-07-25T04:52:10;4.35;;;2.10;;
23015;SDS011;11674;52.428;13.584;2022-07-25T04:54:42;2.53;;;2.20;;
23015;SDS011;11674;52.428;13.584;2022-07-25T04:57:14;4.60;;;1.92;;
23015;SDS011;11674;52.428;13.584;2022-07-25T04:59:46;3.97;;;2.15;;
23015;SDS011;11674;52.428;13.584;2022-07-25T05:02:18;4.60;;;2.25;;
23015;SDS011;11674;52.428;13.584;2022-07-25T05:04:50;2.58;;;1.85;;
23015;SDS011;11674;52.428;13.584;2022-07-25T05:07:23;1.98;;;1.70;;
23015;SDS011;11674;52.428;13.584;2022-07-25T05:09:55;1.63;;;1.40;;
23015;SDS011;11674;52.428;13.584;2022-07-25T05:12:27;2.78;;;1.70;;
23015;SDS011;11674;52.428;13.584;2022-07-25T05:14:59;3.92;;;1.73;;
23015;SDS011;11674;52.428;13.584;2022-07-25T05:17:31;3.20;;;1.90;;
23015;SDS011;11674;52.428;13.584;2022-07-25T05:20:03;1.75;;;1.60;;
23015;SDS011;11674;52.428;13.584;2022-07-25T05:22:35;8.73;;;1.95;;
23015;SDS011;11674;52.428;13.584;2022-07-25T05:25:07;5.97;;;1.98;;
23015;SDS011;11674;52.428;13.584;2022-07-25T05:27:41;2.50;;;1.65;;
23015;SDS011;11674;52.428;13.584;2022-07-25T05:30:13;6.18;;;2.10;;
23015;SDS011;11674;52.428;13.584;2022-07-25T05:32:45;5.70;;;1.95;;
23015;SDS011;11674;52.428;13.584;2022-07-25T05:35:17;5.28;;;1.85;;
23015;SDS011;11674;52.428;13.584;2022-07-25T05:37:49;2.00;;;1.50;;
23015;SDS011;11674;52.428;13.584;2022-07-25T05:40:21;3.13;;;1.90;;
23015;SDS011;11674;52.428;13.584;2022-07-25T05:42:53;5.75;;;2.15;;
23015;SDS011;11674;52.428;13.584;2022-07-25T05:45:25;2.28;;;1.65;;
23015;SDS011;11674;52.428;13.584;2022-07-25T05:47:57;3.13;;;1.92;;
23015;SDS011;11674;52.428;13.584;2022-07-25T05:50:29;3.03;;;2.08;;
23015;SDS011;11674;52.428;13.584;2022-07-25T05:53:01;5.43;;;1.90;;
23015;SDS011;11674;52.428;13.584;2022-07-25T05:55:33;2.95;;;1.80;;
23015;SDS011;11674;52.428;13.584;2022-07-25T05:58:05;2.55;;;2.00;;
23015;SDS011;11674;52.428;13.584;2022-07-25T06:00:37;6.18;;;2.40;;
23015;SDS011;11674;52.428;13.584;2022-07-25T06:03:09;3.17;;;2.30;;
23015;SDS011;11674;52.428;13.584;2022-07-25T06:05:41;4.57;;;2.00;;
23015;SDS011;11674;52.428;13.584;2022-07-25T06:08:13;3.53;;;1.73;;
23015;SDS011;11674;52.428;13.584;2022-07-25T06:10:46;6.88;;;2.00;;
23015;SDS011;11674;52.428;13.584;2022-07-25T06:13:18;3.65;;;2.13;;
23015;SDS011;11674;52.428;13.584;2022-07-25T06:15:50;3.65;;;2.10;;
23015;SDS011;11674;52.428;13.584;2022-07-25T06:18:22;4.78;;;2.33;;
23015;SDS011;11674;52.428;13.584;2022-07-25T06:20:55;4.75;;;2.20;;
23015;SDS011;11674;52.428;13.584;2022-07-25T06:23:27;3.63;;;2.20;;
23015;SDS011;11674;52.428;13.584;2022-07-25T06:25:59;3.75;;;2.17;;
23015;SDS011;11674;52.428;13.584;2022-07-25T06:28:31;11.85;;;2.42;;
23015;SDS011;11674;52.428;13.584;2022-07-25T06:31:03;5.43;;;2.10;;
23015;SDS011;11674;52.428;13.584;2022-07-25T06:33:35;2.78;;;2.47;;
23015;SDS011;11674;52.428;13.584;2022-07-25T06:36:07;4.78;;;2.22;;
23015;SDS011;11674;52.428;13.584;2022-07-25T06:38:39;3.33;;;2.15;;
23015;SDS011;11674;52.428;13.584;2022-07-25T06:41:12;6.68;;;3.15;;
23015;SDS011;11674;52.428;13.584;2022-07-25T06:43:45;6.75;;;2.70;;
23015;SDS011;11674;52.428;13.584;2022-07-25T06:46:17;3.50;;;2.30;;
23015;SDS011;11674;52.428;13.584;2022-07-25T06:48:49;3.50;;;2.00;;
23015;SDS011;11674;52.428;13.584;2022-07-25T06:51:21;4.10;;;2.78;;
23015;SDS011;11674;52.428;13.584;2022-07-25T06:53:53;3.80;;;2.17;;
23015;SDS011;11674;52.428;13.584;2022-07-25T06:56:25;3.38;;;2.58;;
23015;SDS011;11674;52.428;13.584;2022-07-25T06:58:57;3.50;;;2.50;;
23015;SDS011;11674;52.428;13.584;2022-07-25T07:01:30;3.70;;;2.60;;
23015;SDS011;11674;52.428;13.584;2022-07-25T07:04:02;4.10;;;2.30;;
23015;SDS011;11674;52.428;13.584;2022-07-25T07:06:34;5.88;;;2.45;;
23015;SDS011;11674;52.428;13.584;2022-07-25T07:09:06;7.63;;;2.88;;
23015;SDS011;11674;52.428;13.584;2022-07-25T07:11:38;5.53;;;2.83;;
23015;SDS011;11674;52.428;13.584;2022-07-25T07:14:10;5.50;;;2.60;;
23015;SDS011;11674;52.428;13.584;2022-07-25T07:16:42;6.55;;;2.75;;
23015;SDS011;11674;52.428;13.584;2022-07-25T07:19:14;4.47;;;3.25;;
23015;SDS011;11674;52.428;13.584;2022-07-25T07:21:46;4.28;;;2.85;;
23015;SDS011;11674;52.428;13.584;2022-07-25T07:24:18;4.35;;;2.83;;
23015;SDS011;11674;52.428;13.584;2022-07-25T07:26:50;4.75;;;2.60;;
23015;SDS011;11674;52.428;13.584;2022-07-25T07:29:23;3.22;;;2.92;;
23015;SDS011;11674;52.428;13.584;2022-07-25T07:31:55;4.35;;;3.00;;
23015;SDS011;11674;52.428;13.584;2022-07-25T07:34:27;5.38;;;3.20;;
23015;SDS011;11674;52.428;13.584;2022-07-25T07:36:59;4.07;;;3.30;;
23015;SDS011;11674;52.428;13.584;2022-07-25T07:39:31;6.90;;;3.30;;
23015;SDS011;11674;52.428;13.584;2022-07-25T07:42:03;16.05;;;2.92;;
23015;SDS011;11674;52.428;13.584;2022-07-25T07:44:35;3.60;;;2.70;;
23015;SDS011;11674;52.428;13.584;2022-07-25T07:47:07;6.60;;;3.30;;
23015;SDS011;11674;52.428;13.584;2022-07-25T07:49:39;5.93;;;3.20;;
23015;SDS011;11674;52.428;13.584;2022-07-25T07:52:11;4.38;;;3.00;;
23015;SDS011;11674;52.428;13.584;2022-07-25T07:54:43;5.43;;;3.33;;
23015;SDS011;11674;52.428;13.584;2022-07-25T07:57:15;4.47;;;2.90;;
23015;SDS011;11674;52.428;13.584;2022-07-25T07:59:47;6.47;;;3.40;;
23015;SDS011;11674;52.428;13.584;2022-07-25T08:02:19;7.00;;;3.45;;
23015;SDS011;11674;52.428;13.584;2022-07-25T08:04:51;4.07;;;3.15;;
23015;SDS011;11674;52.428;13.584;2022-07-25T08:07:23;4.43;;;3.47;;
23015;SDS011;11674;52.428;13.584;2022-07-25T08:09:55;4.65;;;3.35;;
23015;SDS011;11674;52.428;13.584;2022-07-25T08:12:27;4.75;;;3.63;;
23015;SDS011;11674;52.428;13.584;2022-07-25T08:14:59;5.18;;;3.30;;
23015;SDS011;11674;52.428;13.584;2022-07-25T08:17:31;6.03;;;4.53;;
23015;SDS011;11674;52.428;13.584;2022-07-25T08:20:03;8.98;;;6.07;;
23015;SDS011;11674;52.428;13.584;2022-07-25T08:22:40;7.70;;;6.30;;
23015;SDS011;11674;52.428;13.584;2022-07-25T08:25:18;7.70;;;5.75;;
23015;SDS011;11674;52.428;13.584;2022-07-25T08:27:51;7.05;;;4.53;;
23015;SDS011;11674;52.428;13.584;2022-07-25T08:30:23;6.65;;;5.78;;
23015;SDS011;11674;52.428;13.584;2022-07-25T08:32:56;7.43;;;4.57;;
23015;SDS011;11674;52.428;13.584;2022-07-25T08:35:29;4.97;;;3.67;;
23015;SDS011;11674;52.428;13.584;2022-07-25T08:38:02;6.47;;;3.85;;
23015;SDS011;11674;52.428;13.584;2022-07-25T08:40:35;10.85;;;3.72;;
23015;SDS011;11674;52.428;13.584;2022-07-25T08:43:09;5.38;;;3.55;;
23015;SDS011;11674;52.428;13.584;2022-07-25T08:48:22;5.70;;;3.78;;
23015;SDS011;11674;52.428;13.584;2022-07-25T08:50:55;6.43;;;4.00;;
23015;SDS011;11674;52.428;13.584;2022-07-25T08:53:28;7.20;;;4.00;;
23015;SDS011;11674;52.428;13.584;2022-07-25T08:56:00;5.57;;;3.72;;
23015;SDS011;11674;52.428;13.584;2022-07-25T08:58:35;15.50;;;10.57;;
23015;SDS011;11674;52.428;13.584;2022-07-25T09:01:08;5.07;;;4.00;;
23015;SDS011;11674;52.428;13.584;2022-07-25T09:03:40;9.07;;;4.65;;
23015;SDS011;11674;52.428;13.584;2022-07-25T09:06:22;5.90;;;4.25;;
23015;SDS011;11674;52.428;13.584;2022-07-25T09:08:55;7.57;;;4.40;;
23015;SDS011;11674;52.428;13.584;2022-07-25T09:14:04;4.97;;;3.70;;
23015;SDS011;11674;52.428;13.584;2022-07-25T09:16:41;5.78;;;4.10;;
23015;SDS011;11674;52.428;13.584;2022-07-25T09:19:18;6.65;;;4.30;;
23015;SDS011;11674;52.428;13.584;2022-07-25T09:24:34;9.10;;;6.30;;
23015;SDS011;11674;52.428;13.584;2022-07-25T09:27:07;14.18;;;10.80;;
23015;SDS011;11674;52.428;13.584;2022-07-25T09:29:40;7.07;;;5.60;;
23015;SDS011;11674;52.428;13.584;2022-07-25T09:32:19;5.82;;;4.32;;
23015;SDS011;11674;52.428;13.584;2022-07-25T09:34:54;11.70;;;5.05;;
23015;SDS011;11674;52.428;13.584;2022-07-25T09:37:26;7.82;;;4.60;;
23015;SDS011;11674;52.428;13.584;2022-07-25T09:39:59;9.05;;;4.93;;
23015;SDS011;11674;52.428;13.584;2022-07-25T09:45:09;6.30;;;4.88;;
23015;SDS011;11674;52.428;13.584;2022-07-25T09:47:54;5.60;;;4.47;;
23015;SDS011;11674;52.428;13.584;2022-07-25T09:50:29;6.90;;;4.22;;
23015;SDS011;11674;52.428;13.584;2022-07-25T09:52:59;6.05;;;4.70;;
23015;SDS011;11674;52.428;13.584;2022-07-25T09:55:32;7.50;;;5.40;;
23015;SDS011;11674;52.428;13.584;2022-07-25T09:57:57;14.10;;;5.15;;
23015;SDS011;11674;52.428;13.584;2022-07-25T10:00:29;9.52;;;4.75;;
23015;SDS011;11674;52.428;13.584;2022-07-25T10:03:28;6.93;;;4.85;;
23015;SDS011;11674;52.428;13.584;2022-07-25T10:09:21;9.77;;;7.03;;
23015;SDS011;11674;52.428;13.584;2022-07-25T10:12:03;11.10;;;8.80;;
23015;SDS011;11674;52.428;13.584;2022-07-25T10:14:35;10.70;;;7.97;;
23015;SDS011;11674;52.428;13.584;2022-07-25T10:17:08;11.05;;;6.55;;
23015;SDS011;11674;52.428;13.584;2022-07-25T10:19:51;6.38;;;5.38;;
23015;SDS011;11674;52.428;13.584;2022-07-25T10:22:34;10.48;;;5.45;;
23015;SDS011;11674;52.428;13.584;2022-07-25T10:25:17;7.70;;;5.03;;
23015;SDS011;11674;52.428;13.584;2022-07-25T10:27:51;6.38;;;5.03;;
23015;SDS011;11674;52.428;13.584;2022-07-25T10:30:33;7.82;;;5.15;;
23015;SDS011;11674;52.428;13.584;2022-07-25T10:35:42;8.73;;;4.85;;
23015;SDS011;11674;52.428;13.584;2022-07-25T10:38:22;13.25;;;9.00;;
23015;SDS011;11674;52.428;13.584;2022-07-25T10:40:55;9.30;;;5.18;;
23015;SDS011;11674;52.428;13.584;2022-07-25T10:43:35;13.13;;;5.43;;
23015;SDS011;11674;52.428;13.584;2022-07-25T10:46:10;6.10;;;5.25;;
23015;SDS011;11674;52.428;13.584;2022-07-25T10:48:44;7.65;;;5.80;;
23015;SDS011;11674;52.428;13.584;2022-07-25T10:51:28;6.95;;;5.22;;
23015;SDS011;11674;52.428;13.584;2022-07-25T10:54:11;5.95;;;5.25;;
23015;SDS011;11674;52.428;13.584;2022-07-25T10:56:57;6.20;;;5.60;;
23015;SDS011;11674;52.428;13.584;2022-07-25T11:02:07;11.80;;;5.30;;
23015;SDS011;11674;52.428;13.584;2022-07-25T11:04:40;8.30;;;5.38;;
23015;SDS011;11674;52.428;13.584;2022-07-25T11:07:08;10.35;;;5.50;;
23015;SDS011;11674;52.428;13.584;2022-07-25T11:09:41;9.02;;;5.85;;
23015;SDS011;11674;52.428;13.584;2022-07-25T11:12:14;8.07;;;5.72;;
23015;SDS011;11674;52.428;13.584;2022-07-25T11:14:46;7.18;;;5.75;;
23015;SDS011;11674;52.428;13.584;2022-07-25T11:17:19;9.00;;;5.65;;
23015;SDS011;11674;52.428;13.584;2022-07-25T11:20:03;7.03;;;5.40;;
23015;SDS011;11674;52.428;13.584;2022-07-25T11:22:37;5.82;;;5.20;;
23015;SDS011;11674;52.428;13.584;2022-07-25T11:25:10;7.25;;;5.85;;
23015;SDS011;11674;52.428;13.584;2022-07-25T11:27:43;6.72;;;5.85;;
23015;SDS011;11674;52.428;13.584;2022-07-25T11:30:16;9.52;;;5.38;;
23015;SDS011;11674;52.428;13.584;2022-07-25T11:35:24;8.30;;;5.97;;
23015;SDS011;11674;52.428;13.584;2022-07-25T11:38:00;7.60;;;6.13;;
23015;SDS011;11674;52.428;13.584;2022-07-25T11:40:33;8.70;;;6.85;;
23015;SDS011;11674;52.428;13.584;2022-07-25T11:43:19;11.98;;;10.25;;
23015;SDS011;11674;52.428;13.584;2022-07-25T11:45:56;7.80;;;6.50;;
23015;SDS011;11674;52.428;13.584;2022-07-25T11:48:30;10.70;;;6.13;;
23015;SDS011;11674;52.428;13.584;2022-07-25T11:51:11;7.78;;;5.38;;
23015;SDS011;11674;52.428;13.584;2022-07-25T11:53:47;6.50;;;5.43;;
23015;SDS011;11674;52.428;13.584;2022-07-25T11:56:21;8.18;;;5.28;;
23015;SDS011;11674;52.428;13.584;2022-07-25T11:58:56;7.47;;;5.95;;
23015;SDS011;11674;52.428;13.584;2022-07-25T12:01:32;7.28;;;5.72;;
23015;SDS011;11674;52.428;13.584;2022-07-25T12:04:07;6.97;;;5.70;;
23015;SDS011;11674;52.428;13.584;2022-07-25T12:06:47;11.77;;;5.10;;
23015;SDS011;11674;52.428;13.584;2022-07-25T12:09:20;6.35;;;5.10;;
23015;SDS011;11674;52.428;13.584;2022-07-25T12:12:00;7.57;;;5.00;;
23015;SDS011;11674;52.428;13.584;2022-07-25T12:14:42;7.18;;;5.15;;
23015;SDS011;11674;52.428;13.584;2022-07-25T12:17:14;10.10;;;5.40;;
23015;SDS011;11674;52.428;13.584;2022-07-25T12:19:46;11.48;;;5.97;;
23015;SDS011;11674;52.428;13.584;2022-07-25T12:22:18;7.43;;;5.07;;
23015;SDS011;11674;52.428;13.584;2022-07-25T12:24:50;6.05;;;5.20;;
23015;SDS011;11674;52.428;13.584;2022-07-25T12:27:22;7.18;;;5.20;;
23015;SDS011;11674;52.428;13.584;2022-07-25T12:29:54;5.90;;;5.07;;
23015;SDS011;11674;52.428;13.584;2022-07-25T12:32:26;5.35;;;4.90;;
23015;SDS011;11674;52.428;13.584;2022-07-25T12:34:58;9.32;;;5.40;;
23015;SDS011;11674;52.428;13.584;2022-07-25T12:37:30;8.60;;;5.47;;
23015;SDS011;11674;52.428;13.584;2022-07-25T12:40:02;15.70;;;9.10;;
23015;SDS011;11674;52.428;13.584;2022-07-25T12:42:29;13.90;;;10.43;;
23015;SDS011;11674;52.428;13.584;2022-07-25T12:45:01;7.00;;;5.18;;
23015;SDS011;11674;52.428;13.584;2022-07-25T12:47:33;4.75;;;4.30;;
23015;SDS011;11674;52.428;13.584;2022-07-25T12:49:59;7.05;;;5.45;;
23015;SDS011;11674;52.428;13.584;2022-07-25T12:52:30;7.45;;;6.13;;
23015;SDS011;11674;52.428;13.584;2022-07-25T12:55:02;5.35;;;4.65;;
23015;SDS011;11674;52.428;13.584;2022-07-25T12:57:35;9.68;;;5.25;;
23015;SDS011;11674;52.428;13.584;2022-07-25T13:00:03;8.18;;;4.57;;
23015;SDS011;11674;52.428;13.584;2022-07-25T13:02:35;6.32;;;4.55;;
23015;SDS011;11674;52.428;13.584;2022-07-25T13:05:07;9.85;;;4.85;;
23015;SDS011;11674;52.428;13.584;2022-07-25T13:07:33;6.15;;;4.82;;
23015;SDS011;11674;52.428;13.584;2022-07-25T13:10:05;9.10;;;4.70;;
23015;SDS011;11674;52.428;13.584;2022-07-25T13:12:37;6.82;;;4.95;;
23015;SDS011;11674;52.428;13.584;2022-07-25T13:15:02;8.33;;;7.03;;
23015;SDS011;11674;52.428;13.584;2022-07-25T13:17:35;12.02;;;9.43;;
23015;SDS011;11674;52.428;13.584;2022-07-25T13:20:07;19.92;;;12.82;;
23015;SDS011;11674;52.428;13.584;2022-07-25T13:22:34;8.38;;;5.03;;
23015;SDS011;11674;52.428;13.584;2022-07-25T13:25:05;6.93;;;4.72;;
23015;SDS011;11674;52.428;13.584;2022-07-25T13:27:31;8.10;;;4.93;;
23015;SDS011;11674;52.428;13.584;2022-07-25T13:30:04;8.02;;;4.80;;
23015;SDS011;11674;52.428;13.584;2022-07-25T13:32:30;5.70;;;4.82;;
23015;SDS011;11674;52.428;13.584;2022-07-25T13:35:02;5.70;;;5.00;;
23015;SDS011;11674;52.428;13.584;2022-07-25T13:37:34;5.40;;;4.57;;
23015;SDS011;11674;52.428;13.584;2022-07-25T13:39:59;9.87;;;5.40;;
23015;SDS011;11674;52.428;13.584;2022-07-25T13:42:31;15.48;;;11.13;;
23015;SDS011;11674;52.428;13.584;2022-07-25T13:45:04;9.43;;;6.70;;
23015;SDS011;11674;52.428;13.584;2022-07-25T13:47:36;9.77;;;7.38;;
23015;SDS011;11674;52.428;13.584;2022-07-25T13:50:08;6.20;;;5.28;;
23015;SDS011;11674;52.428;13.584;2022-07-25T13:52:40;8.60;;;4.78;;
23015;SDS011;11674;52.428;13.584;2022-07-25T13:55:12;5.85;;;4.80;;
23015;SDS011;11674;52.428;13.584;2022-07-25T13:57:44;7.57;;;4.80;;
23015;SDS011;11674;52.428;13.584;2022-07-25T14:00:16;7.45;;;4.78;;
23015;SDS011;11674;52.428;13.584;2022-07-25T14:02:48;8.02;;;4.38;;
23015;SDS011;11674;52.428;13.584;2022-07-25T14:05:20;5.05;;;4.47;;
23015;SDS011;11674;52.428;13.584;2022-07-25T14:07:52;6.85;;;4.57;;
23015;SDS011;11674;52.428;13.584;2022-07-25T14:10:24;7.15;;;5.30;;
23015;SDS011;11674;52.428;13.584;2022-07-25T14:12:56;5.68;;;4.95;;
23015;SDS011;11674;52.428;13.584;2022-07-25T14:15:28;5.18;;;4.60;;
23015;SDS011;11674;52.428;13.584;2022-07-25T14:18:00;7.85;;;5.25;;
23015;SDS011;11674;52.428;13.584;2022-07-25T14:20:33;9.68;;;8.68;;
23015;SDS011;11674;52.428;13.584;2022-07-25T14:23:05;9.82;;;7.88;;
23015;SDS011;11674;52.428;13.584;2022-07-25T14:25:37;7.07;;;5.63;;
23015;SDS011;11674;52.428;13.584;2022-07-25T14:28:09;7.10;;;6.25;;
23015;SDS011;11674;52.428;13.584;2022-07-25T14:30:41;11.00;;;5.10;;
23015;SDS011;11674;52.428;13.584;2022-07-25T14:33:13;6.65;;;5.20;;
23015;SDS011;11674;52.428;13.584;2022-07-25T14:35:38;5.17;;;4.67;;
23015;SDS011;11674;52.428;13.584;2022-07-25T14:38:10;6.82;;;5.18;;
23015;SDS011;11674;52.428;13.584;2022-07-25T14:40:42;5.00;;;4.50;;
23015;SDS011;11674;52.428;13.584;2022-07-25T14:43:14;12.35;;;4.90;;
23015;SDS011;11674;52.428;13.584;2022-07-25T14:45:46;6.18;;;5.18;;
23015;SDS011;11674;52.428;13.584;2022-07-25T14:48:11;5.37;;;4.73;;
23015;SDS011;11674;52.428;13.584;2022-07-25T14:50:43;12.52;;;4.70;;
23015;SDS011;11674;52.428;13.584;2022-07-25T14:53:15;6.60;;;4.75;;
23015;SDS011;11674;52.428;13.584;2022-07-25T14:55:40;5.67;;;4.67;;
23015;SDS011;11674;52.428;13.584;2022-07-25T14:58:12;7.13;;;4.60;;
23015;SDS011;11674;52.428;13.584;2022-07-25T15:00:44;5.60;;;4.60;;
23015;SDS011;11674;52.428;13.584;2022-07-25T15:03:16;6.65;;;4.60;;
23015;SDS011;11674;52.428;13.584;2022-07-25T15:05:48;7.03;;;4.43;;
23015;SDS011;11674;52.428;13.584;2022-07-25T15:08:20;6.07;;;4.88;;
23015;SDS011;11674;52.428;13.584;2022-07-25T15:10:52;5.70;;;5.00;;
23015;SDS011;11674;52.428;13.584;2022-07-25T15:13:24;7.00;;;4.45;;
23015;SDS011;11674;52.428;13.584;2022-07-25T15:15:56;5.88;;;4.90;;
23015;SDS011;11674;52.428;13.584;2022-07-25T15:18:28;7.18;;;4.72;;
23015;SDS011;11674;52.428;13.584;2022-07-25T15:21:00;7.10;;;5.03;;
23015;SDS011;11674;52.428;13.584;2022-07-25T15:23:32;9.63;;;7.25;;
23015;SDS011;11674;52.428;13.584;2022-07-25T15:26:04;13.60;;;9.15;;